createdAt,value
2019-04-25T00:00:43.278Z,101966.26
2019-04-25T00:03:13.484Z,101955.42
2019-04-25T00:05:43.611Z,101966.06
2019-04-25T00:08:14.516Z,101968.52
2019-04-25T00:10:44.429Z,101971.22
2019-04-25T00:13:15.022Z,101967.26
2019-04-25T00:15:44.977Z,101974.41
2019-04-25T00:18:15.660Z,101971.56
2019-04-25T00:20:52.942Z,101973.81
2019-04-25T00:23:22.794Z,101971.02
2019-04-25T00:26:12.157Z,101972.73
2019-04-25T00:28:43.586Z,101974.70
2019-04-25T00:31:13.722Z,101981.14
2019-04-25T00:33:44.903Z,101981.63
2019-04-25T00:36:15.031Z,101986.01
2019-04-25T00:38:47.601Z,101985.87
2019-04-25T00:41:16.419Z,101987.51
2019-04-25T00:43:46.366Z,101990.88
2019-04-25T00:46:16.254Z,101990.73
2019-04-25T00:48:46.187Z,101993.02
2019-04-25T00:51:16.062Z,101986.55
2019-04-25T00:53:46.126Z,101987.97
2019-04-25T00:56:16.044Z,101989.01
2019-04-25T00:58:54.111Z,101984.41
2019-04-25T01:01:26.574Z,101984.11
2019-04-25T01:03:56.618Z,101983.41
2019-04-25T01:06:26.375Z,101984.97
2019-04-25T01:08:56.282Z,101984.08
2019-04-25T01:11:26.160Z,101981.21
2019-04-25T01:13:56.125Z,101986.21
2019-04-25T01:16:25.901Z,101982.34
2019-04-25T01:18:55.841Z,101979.24
2019-04-25T01:21:25.676Z,101983.41
2019-04-25T01:23:55.818Z,101982.53
2019-04-25T01:26:25.769Z,101976.06
2019-04-25T01:28:56.047Z,101976.91
2019-04-25T01:31:27.637Z,101977.17
2019-04-25T01:33:57.454Z,101984.35
2019-04-25T01:36:44.907Z,101976.75
2019-04-25T01:39:28.344Z,101979.47
2019-04-25T01:41:59.777Z,101976.81
2019-04-25T01:44:31.257Z,101973.91
2019-04-25T01:47:01.211Z,101970.08
2019-04-25T01:49:31.213Z,101974.15
2019-04-25T01:52:01.112Z,101972.97
2019-04-25T01:54:31.073Z,101973.09
2019-04-25T01:57:00.898Z,101978.31
2019-04-25T01:59:30.748Z,101972.83
2019-04-25T02:02:00.674Z,101971.77
2019-04-25T02:04:30.493Z,101968.11
2019-04-25T02:07:00.374Z,101965.78
2019-04-25T02:09:30.388Z,101974.33
2019-04-25T02:12:01.832Z,101976.89
2019-04-25T02:14:31.562Z,101973.41
2019-04-25T02:17:02.340Z,101973.70
2019-04-25T02:19:33.916Z,101979.94
2019-04-25T02:22:04.562Z,101976.16
2019-04-25T02:24:34.424Z,101988.86
2019-04-25T02:27:04.720Z,101989.36
2019-04-25T02:29:35.684Z,101986.65
2019-04-25T02:32:08.954Z,101987.55
2019-04-25T02:34:37.661Z,101986.09
2019-04-25T02:37:09.410Z,101986.63
2019-04-25T02:39:39.518Z,101987.89
2019-04-25T02:42:09.397Z,101983.55
2019-04-25T02:44:40.907Z,101996.63
2019-04-25T02:47:15.131Z,101987.50
2019-04-25T02:49:57.305Z,101985.88
2019-04-25T02:52:28.804Z,101988.67
2019-04-25T02:55:00.277Z,101987.10
2019-04-25T02:57:30.138Z,101990.06
2019-04-25T03:00:00.279Z,101986.00
2019-04-25T03:02:30.156Z,101990.80
2019-04-25T03:05:01.212Z,101995.03
2019-04-25T03:07:31.339Z,101989.53
2019-04-25T03:10:01.983Z,101990.38
2019-04-25T03:12:34.398Z,101987.25
2019-04-25T03:15:08.334Z,101990.97
2019-04-25T03:17:37.800Z,101984.70
2019-04-25T03:20:27.208Z,101990.00
2019-04-25T03:22:59.493Z,101992.37
2019-04-25T03:25:29.864Z,101993.43
2019-04-25T03:28:01.198Z,101991.79
2019-04-25T03:30:31.140Z,101991.72
2019-04-25T03:33:02.618Z,101997.09
2019-04-25T03:35:33.243Z,101990.88
2019-04-25T03:38:02.414Z,101992.19
2019-04-25T03:40:33.978Z,101998.98
2019-04-25T03:43:05.068Z,101998.63
2019-04-25T03:45:35.453Z,102001.09
2019-04-25T03:48:06.271Z,101998.35
2019-04-25T03:50:36.185Z,102001.21
2019-04-25T03:53:07.927Z,102004.19
2019-04-25T03:55:37.870Z,101999.87
2019-04-25T03:58:10.534Z,101993.52
2019-04-25T04:00:39.219Z,101997.67
2019-04-25T04:03:09.152Z,101997.07
2019-04-25T04:05:39.017Z,102006.38
2019-04-25T04:08:09.694Z,102006.58
2019-04-25T04:10:39.722Z,102006.38
2019-04-25T04:13:10.253Z,102007.27
2019-04-25T04:15:40.262Z,102002.33
2019-04-25T04:18:11.656Z,102004.21
2019-04-25T04:20:49.183Z,102013.05
2019-04-25T04:23:36.890Z,102005.63
2019-04-25T04:26:07.391Z,102004.28
2019-04-25T04:28:37.309Z,102008.63
2019-04-25T04:31:08.278Z,102001.20
2019-04-25T04:33:38.305Z,102013.34
2019-04-25T04:36:08.793Z,102015.27
2019-04-25T04:38:38.651Z,102013.84
2019-04-25T04:41:09.636Z,102015.29
2019-04-25T04:43:39.602Z,102016.41
2019-04-25T04:46:10.203Z,102002.38
2019-04-25T04:48:39.298Z,102008.06
2019-04-25T04:51:09.139Z,102010.55
2019-04-25T04:53:39.031Z,102008.52
2019-04-25T04:56:09.648Z,102008.23
2019-04-25T04:58:38.826Z,102004.23
2019-04-25T05:01:08.605Z,102010.22
2019-04-25T05:03:53.947Z,102005.01
2019-04-25T05:06:25.473Z,102010.55
2019-04-25T05:08:56.915Z,102011.12
2019-04-25T05:11:26.784Z,102005.83
2019-04-25T05:13:57.633Z,102010.54
2019-04-25T05:16:27.516Z,102016.45
2019-04-25T05:18:57.360Z,102015.84
2019-04-25T05:21:27.224Z,102013.84
2019-04-25T05:23:57.182Z,102011.50
2019-04-25T05:26:27.132Z,102009.31
2019-04-25T05:28:56.985Z,102019.94
2019-04-25T05:31:34.286Z,102018.19
2019-04-25T05:34:04.216Z,102016.37
2019-04-25T05:36:40.119Z,102011.80
2019-04-25T05:39:10.301Z,102010.02
2019-04-25T05:41:43.875Z,102006.97
2019-04-25T05:44:15.690Z,102010.59
2019-04-25T05:46:45.437Z,102003.37
2019-04-25T05:49:15.658Z,102009.55
2019-04-25T05:51:45.452Z,102014.50
2019-04-25T05:54:16.523Z,102009.30
2019-04-25T05:56:46.507Z,102008.70
2019-04-25T05:59:17.942Z,102007.52
2019-04-25T06:01:47.868Z,102007.59
2019-04-25T06:04:17.965Z,102003.69
2019-04-25T06:06:48.101Z,102001.27
2019-04-25T06:09:19.519Z,102001.34
2019-04-25T06:12:00.107Z,102000.23
2019-04-25T06:14:29.262Z,102001.78
2019-04-25T06:17:06.667Z,102000.62
2019-04-25T06:19:43.993Z,101988.41
2019-04-25T06:22:23.363Z,102000.39
2019-04-25T06:24:57.946Z,101992.83
2019-04-25T06:27:33.654Z,101994.02
2019-04-25T06:30:07.128Z,101995.68
2019-04-25T06:32:37.054Z,101991.36
2019-04-25T06:35:07.690Z,101995.59
2019-04-25T06:37:37.657Z,101988.94
2019-04-25T06:40:08.491Z,101986.77
2019-04-25T06:42:39.325Z,101991.42
2019-04-25T06:45:18.569Z,101992.17
2019-04-25T06:47:49.998Z,101984.80
2019-04-25T06:50:20.521Z,101979.80
2019-04-25T06:52:51.411Z,101973.80
2019-04-25T06:55:22.867Z,101970.05
2019-04-25T06:57:53.988Z,101973.71
2019-04-25T07:00:27.746Z,101969.34
2019-04-25T07:02:56.267Z,101974.91
2019-04-25T07:05:33.450Z,101972.45
2019-04-25T07:07:57.827Z,101972.13
2019-04-25T07:10:27.811Z,101974.20
2019-04-25T07:12:57.651Z,101975.03
2019-04-25T07:15:27.916Z,101970.73
2019-04-25T07:17:56.888Z,101959.10
2019-04-25T07:20:27.070Z,101970.00
2019-04-25T07:22:57.503Z,101969.80
2019-04-25T07:25:28.981Z,101973.80
2019-04-25T07:28:03.435Z,101969.26
2019-04-25T07:30:51.448Z,101965.56
2019-04-25T07:33:14.052Z,101972.17
2019-04-25T07:35:43.868Z,101971.61
2019-04-25T07:38:14.106Z,101966.36
2019-04-25T07:40:44.126Z,101961.38
2019-04-25T07:43:13.475Z,101963.66
2019-04-25T07:45:43.596Z,101968.62
2019-04-25T07:48:13.948Z,101971.95
2019-04-25T07:50:43.978Z,101967.22
2019-04-25T07:53:14.837Z,101958.05
2019-04-25T07:55:43.920Z,101962.23
2019-04-25T07:58:14.388Z,101958.18
2019-04-25T08:00:45.339Z,101952.47
2019-04-25T08:03:15.522Z,101949.53
2019-04-25T08:05:45.330Z,101950.83
2019-04-25T08:08:15.214Z,101953.02
2019-04-25T08:11:04.470Z,101952.19
2019-04-25T08:13:36.271Z,101947.92
2019-04-25T08:16:07.745Z,101943.91
2019-04-25T08:18:39.027Z,101939.05
2019-04-25T08:21:08.865Z,101941.20
2019-04-25T08:23:39.056Z,101942.02
2019-04-25T08:26:09.835Z,101935.52
2019-04-25T08:28:54.031Z,101934.59
2019-04-25T08:31:11.593Z,101933.16
2019-04-25T08:33:43.521Z,101928.87
2019-04-25T08:36:13.719Z,101919.77
2019-04-25T08:38:44.784Z,101922.89
2019-04-25T08:41:14.671Z,101923.33
2019-04-25T08:43:45.448Z,101919.39
2019-04-25T08:46:15.465Z,101919.77
2019-04-25T08:49:06.211Z,101921.78
2019-04-25T08:51:44.704Z,101909.94
2019-04-25T08:54:25.114Z,101910.73
2019-04-25T08:56:56.614Z,101908.75
2019-04-25T08:59:50.464Z,101903.98
2019-04-25T09:02:23.552Z,101900.93
2019-04-25T09:04:56.096Z,101894.99
2019-04-25T09:07:26.013Z,101893.17
2019-04-25T09:09:55.930Z,101889.19
2019-04-25T09:12:25.818Z,101874.75
2019-04-25T09:14:55.734Z,101880.27
2019-04-25T09:17:25.646Z,101886.05
2019-04-25T09:19:55.922Z,101871.64
2019-04-25T09:22:28.950Z,101874.56
2019-04-25T09:24:58.829Z,101868.07
2019-04-25T09:27:28.727Z,101866.98
2019-04-25T09:29:58.592Z,101865.30
2019-04-25T09:32:28.422Z,101864.72
2019-04-25T09:34:58.350Z,101858.21
2019-04-25T09:37:28.179Z,101858.77
2019-04-25T09:39:59.551Z,101858.98
2019-04-25T09:42:30.422Z,101853.69
2019-04-25T09:45:07.974Z,101848.38
2019-04-25T09:47:39.486Z,101850.79
2019-04-25T09:50:11.191Z,101842.59
2019-04-25T09:52:41.142Z,101841.02
2019-04-25T09:55:21.454Z,101844.94
2019-04-25T09:57:55.592Z,101839.84
2019-04-25T10:00:33.279Z,101831.25
2019-04-25T10:03:04.522Z,101833.61
2019-04-25T10:05:34.475Z,101826.79
2019-04-25T10:08:04.607Z,101831.02
2019-04-25T10:10:34.563Z,101826.37
2019-04-25T10:13:06.585Z,101824.00
2019-04-25T10:15:45.670Z,101821.05
2019-04-25T10:18:16.996Z,101819.27
2019-04-25T10:20:47.557Z,101820.69
2019-04-25T10:23:17.721Z,101808.90
2019-04-25T10:25:49.244Z,101806.02
2019-04-25T10:28:19.108Z,101803.03
2019-04-25T10:30:49.245Z,101798.75
2019-04-25T10:33:24.189Z,101803.44
2019-04-25T10:35:59.380Z,101796.23
2019-04-25T10:38:27.912Z,101795.25
2019-04-25T10:40:58.613Z,101793.30
2019-04-25T10:43:28.540Z,101793.25
2019-04-25T10:45:58.525Z,101782.06
2019-04-25T10:48:28.290Z,101786.69
2019-04-25T10:50:58.106Z,101781.69
2019-04-25T10:53:28.013Z,101780.72
2019-04-25T10:55:57.941Z,101776.88
2019-04-25T10:58:27.803Z,101778.98
2019-04-25T11:00:58.597Z,101773.31
2019-04-25T11:03:31.176Z,101773.17
2019-04-25T11:06:01.011Z,101761.17
2019-04-25T11:08:31.068Z,101770.80
2019-04-25T11:11:04.054Z,101767.91
2019-04-25T11:13:35.477Z,101761.78
2019-04-25T11:16:06.393Z,101772.66
2019-04-25T11:18:36.283Z,101763.84
2019-04-25T11:21:07.189Z,101765.69
2019-04-25T11:23:37.007Z,101758.31
2019-04-25T11:26:07.033Z,101750.16
2019-04-25T11:28:38.003Z,101749.28
2019-04-25T11:31:09.494Z,101744.24
2019-04-25T11:33:59.037Z,101741.79
2019-04-25T11:36:28.908Z,101743.14
2019-04-25T11:39:16.611Z,101733.80
2019-04-25T11:41:48.210Z,101736.48
2019-04-25T11:44:18.120Z,101741.32
2019-04-25T11:46:49.524Z,101738.27
2019-04-25T11:49:20.997Z,101728.50
2019-04-25T11:51:59.975Z,101726.46
2019-04-25T11:54:35.908Z,101721.06
2019-04-25T11:57:11.434Z,101718.57
2019-04-25T11:59:41.994Z,101714.50
2019-04-25T12:02:20.940Z,101705.89
2019-04-25T12:04:49.049Z,101701.71
2019-04-25T12:07:19.220Z,101695.20
2019-04-25T12:09:49.935Z,101687.45
2019-04-25T12:12:19.772Z,101685.80
2019-04-25T12:14:49.581Z,101686.16
2019-04-25T12:17:19.420Z,101687.52
2019-04-25T12:19:49.260Z,101684.14
2019-04-25T12:22:19.160Z,101692.58
2019-04-25T12:24:49.060Z,101686.55
2019-04-25T12:27:22.868Z,101682.92
2019-04-25T12:29:52.787Z,101682.19
2019-04-25T12:32:22.938Z,101675.03
2019-04-25T12:34:53.639Z,101684.10
2019-04-25T12:37:25.059Z,101673.85
2019-04-25T12:39:55.914Z,101673.87
2019-04-25T12:42:25.853Z,101673.49
2019-04-25T12:44:58.125Z,101663.17
2019-04-25T12:47:32.218Z,101662.00
2019-04-25T12:50:02.114Z,101663.28
2019-04-25T12:52:33.340Z,101656.09
2019-04-25T12:55:04.459Z,101654.34
2019-04-25T12:57:34.375Z,101649.59
2019-04-25T13:00:05.950Z,101642.57
2019-04-25T13:02:36.627Z,101644.13
2019-04-25T13:05:07.557Z,101638.39
2019-04-25T13:07:39.045Z,101639.69
2019-04-25T13:10:09.358Z,101641.17
2019-04-25T13:12:39.192Z,101634.23
2019-04-25T13:15:09.832Z,101630.62
2019-04-25T13:17:40.113Z,101632.59
2019-04-25T13:20:10.088Z,101628.75
2019-04-25T13:22:39.893Z,101635.18
2019-04-25T13:25:11.028Z,101630.91
2019-04-25T13:27:46.696Z,101622.75
2019-04-25T13:30:33.994Z,101623.01
2019-04-25T13:33:11.228Z,101617.69
2019-04-25T13:35:43.381Z,101616.78
2019-04-25T13:38:13.271Z,101617.39
2019-04-25T13:40:43.031Z,101618.11
2019-04-25T13:43:12.933Z,101613.79
2019-04-25T13:45:43.775Z,101610.17
2019-04-25T13:48:13.708Z,101603.86
2019-04-25T13:50:44.357Z,101610.03
2019-04-25T13:53:14.480Z,101602.90
2019-04-25T13:55:44.334Z,101607.29
2019-04-25T13:58:17.393Z,101607.27
2019-04-25T14:00:47.225Z,101606.08
2019-04-25T14:03:18.630Z,101597.11
2019-04-25T14:05:50.161Z,101597.88
2019-04-25T14:08:21.016Z,101589.77
2019-04-25T14:10:50.875Z,101599.89
2019-04-25T14:13:21.169Z,101589.66
2019-04-25T14:15:59.380Z,101594.73
2019-04-25T14:18:32.818Z,101589.20
2019-04-25T14:21:10.093Z,101586.13
2019-04-25T14:23:39.917Z,101588.33
2019-04-25T14:26:13.254Z,101591.70
2019-04-25T14:28:44.553Z,101584.15
2019-04-25T14:31:33.509Z,101582.06
2019-04-25T14:33:54.274Z,101574.65
2019-04-25T14:36:27.637Z,101579.15
2019-04-25T14:38:58.237Z,101573.86
2019-04-25T14:41:32.586Z,101576.02
2019-04-25T14:44:05.587Z,101577.94
2019-04-25T14:46:37.725Z,101581.28
2019-04-25T14:49:07.121Z,101574.27
2019-04-25T14:51:38.512Z,101571.81
2019-04-25T14:54:09.958Z,101570.86
2019-04-25T14:56:42.871Z,101563.42
2019-04-25T14:59:14.051Z,101563.73
2019-04-25T15:01:46.719Z,101565.22
2019-04-25T15:04:16.584Z,101566.98
2019-04-25T15:06:48.347Z,101563.20
2019-04-25T15:09:18.397Z,101569.67
2019-04-25T15:11:51.063Z,101563.58
2019-04-25T15:14:21.026Z,101566.20
2019-04-25T15:16:53.931Z,101566.92
2019-04-25T15:19:29.578Z,101563.13
2019-04-25T15:21:59.380Z,101559.13
2019-04-25T15:24:30.312Z,101558.93
2019-04-25T15:27:00.068Z,101558.93
2019-04-25T15:29:29.899Z,101559.19
2019-04-25T15:31:59.781Z,101559.77
2019-04-25T15:34:31.218Z,101558.98
2019-04-25T15:37:08.634Z,101559.36
2019-04-25T15:39:52.014Z,101561.80
2019-04-25T15:42:39.725Z,101568.14
2019-04-25T15:45:11.259Z,101563.54
2019-04-25T15:47:41.265Z,101557.53
2019-04-25T15:50:11.630Z,101559.19
2019-04-25T15:52:40.726Z,101554.03
2019-04-25T15:55:10.926Z,101555.53
2019-04-25T15:57:41.515Z,101552.05
2019-04-25T16:00:13.744Z,101551.90
2019-04-25T16:02:43.800Z,101556.73
2019-04-25T16:05:13.813Z,101557.06
2019-04-25T16:07:43.998Z,101564.66
2019-04-25T16:10:14.460Z,101557.23
2019-04-25T16:12:44.824Z,101554.48
2019-04-25T16:15:14.736Z,101560.30
2019-04-25T16:17:44.598Z,101568.89
2019-04-25T16:20:15.420Z,101562.98
2019-04-25T16:22:45.393Z,101569.02
2019-04-25T16:25:15.613Z,101566.72
2019-04-25T16:27:45.442Z,101565.69
2019-04-25T16:30:15.519Z,101566.59
2019-04-25T16:32:45.431Z,101567.77
2019-04-25T16:35:15.307Z,101561.13
2019-04-25T16:37:46.204Z,101571.83
2019-04-25T16:40:16.237Z,101569.52
2019-04-25T16:42:46.168Z,101574.59
2019-04-25T16:45:16.244Z,101571.81
2019-04-25T16:47:46.134Z,101571.55
2019-04-25T16:50:17.201Z,101573.58
2019-04-25T16:52:47.094Z,101576.13
2019-04-25T16:55:17.419Z,101579.94
2019-04-25T16:57:47.387Z,101575.21
2019-04-25T17:00:36.220Z,101575.98
2019-04-25T17:03:06.356Z,101583.38
2019-04-25T17:05:39.350Z,101588.21
2019-04-25T17:08:09.486Z,101588.92
2019-04-25T17:10:39.563Z,101588.98
2019-04-25T17:13:09.586Z,101597.02
2019-04-25T17:15:49.857Z,101592.48
2019-04-25T17:18:27.060Z,101596.89
2019-04-25T17:21:11.819Z,101601.75
2019-04-25T17:23:44.235Z,101606.63
2019-04-25T17:26:14.597Z,101608.48
2019-04-25T17:28:46.071Z,101613.66
2019-04-25T17:31:26.486Z,101620.36
2019-04-25T17:34:06.700Z,101624.67
2019-04-25T17:36:44.059Z,101626.84
2019-04-25T17:39:27.656Z,101625.99
2019-04-25T17:41:57.587Z,101626.84
2019-04-25T17:44:27.342Z,101630.16
2019-04-25T17:47:06.120Z,101677.59
2019-04-25T17:49:28.920Z,101627.59
2019-04-25T17:51:58.735Z,101630.21
2019-04-25T17:54:28.689Z,101629.69
2019-04-25T17:56:58.755Z,101632.02
2019-04-25T17:59:28.720Z,101639.12
2019-04-25T18:01:58.637Z,101637.31
2019-04-25T18:04:29.951Z,101634.48
2019-04-25T18:06:59.802Z,101636.70
2019-04-25T18:09:29.715Z,101635.48
2019-04-25T18:11:59.597Z,101633.31
2019-04-25T18:14:29.441Z,101634.08
2019-04-25T18:16:59.415Z,101633.64
2019-04-25T18:19:34.077Z,101631.30
2019-04-25T18:22:11.390Z,101635.20
2019-04-25T18:25:00.853Z,101631.88
2019-04-25T18:27:33.320Z,101636.06
2019-04-25T18:30:06.040Z,101630.34
2019-04-25T18:32:37.063Z,101638.52
2019-04-25T18:35:09.949Z,101635.91
2019-04-25T18:37:53.302Z,101630.31
2019-04-25T18:40:35.620Z,101636.78
2019-04-25T18:43:04.137Z,101633.70
2019-04-25T18:45:38.352Z,101625.80
2019-04-25T18:48:08.225Z,101635.73
2019-04-25T18:50:38.563Z,101632.10
2019-04-25T18:53:10.011Z,101632.89
2019-04-25T18:55:44.242Z,101634.24
2019-04-25T18:58:31.727Z,101637.37
2019-04-25T19:01:15.208Z,101631.24
2019-04-25T19:03:52.537Z,101636.05
2019-04-25T19:06:23.989Z,101631.09
2019-04-25T19:08:53.899Z,101626.28
2019-04-25T19:11:23.804Z,101625.71
2019-04-25T19:13:53.757Z,101626.84
2019-04-25T19:16:23.645Z,101624.22
2019-04-25T19:18:53.514Z,101623.76
2019-04-25T19:21:23.389Z,101619.45
2019-04-25T19:23:54.171Z,101617.59
2019-04-25T19:26:24.619Z,101613.70
2019-04-25T19:28:54.501Z,101623.32
2019-04-25T19:31:24.391Z,101617.06
2019-04-25T19:33:54.282Z,101613.80
2019-04-25T19:36:24.176Z,101612.27
2019-04-25T19:38:54.524Z,101625.09
2019-04-25T19:41:28.899Z,101618.19
2019-04-25T19:44:12.523Z,101617.14
2019-04-25T19:46:44.919Z,101618.98
2019-04-25T19:49:14.873Z,101612.05
2019-04-25T19:51:45.164Z,101613.41
2019-04-25T19:54:15.035Z,101612.09
2019-04-25T19:56:45.367Z,101604.94
2019-04-25T19:59:15.283Z,101603.05
2019-04-25T20:01:45.961Z,101607.78
2019-04-25T20:04:20.440Z,101606.78
2019-04-25T20:06:51.963Z,101599.59
2019-04-25T20:09:39.701Z,101611.53
2019-04-25T20:12:09.598Z,101609.45
2019-04-25T20:14:39.334Z,101602.05
2019-04-25T20:17:09.817Z,101609.50
2019-04-25T20:19:39.681Z,101605.55
2019-04-25T20:22:09.501Z,101603.52
2019-04-25T20:24:39.396Z,101607.00
2019-04-25T20:27:09.186Z,101600.99
2019-04-25T20:29:39.145Z,101602.47
2019-04-25T20:32:08.950Z,101608.02
2019-04-25T20:34:38.893Z,101603.18
2019-04-25T20:37:08.736Z,101605.38
2019-04-25T20:39:38.505Z,101611.19
2019-04-25T20:42:08.462Z,101604.39
2019-04-25T20:44:38.318Z,101606.58
2019-04-25T20:47:08.228Z,101611.35
2019-04-25T20:49:38.114Z,101611.78
2019-04-25T20:52:07.947Z,101612.44
2019-04-25T20:54:37.803Z,101608.16
2019-04-25T20:57:07.622Z,101616.03
2019-04-25T20:59:37.457Z,101611.44
2019-04-25T21:02:08.416Z,101617.39
2019-04-25T21:04:42.939Z,101616.74
2019-04-25T21:07:12.876Z,101611.66
2019-04-25T21:09:42.708Z,101611.67
2019-04-25T21:12:12.545Z,101611.91
2019-04-25T21:14:43.990Z,101614.95
2019-04-25T21:17:27.249Z,101611.94
2019-04-25T21:19:58.815Z,101615.53
2019-04-25T21:22:28.678Z,101616.92
2019-04-25T21:24:58.547Z,101613.88
2019-04-25T21:27:28.375Z,101622.09
2019-04-25T21:29:58.298Z,101627.02
2019-04-25T21:32:28.151Z,101612.35
2019-04-25T21:34:59.020Z,101615.53
2019-04-25T21:37:28.181Z,101615.06
2019-04-25T21:40:08.525Z,101617.19
2019-04-25T21:42:40.372Z,101617.11
2019-04-25T21:45:10.442Z,101616.55
2019-04-25T21:47:40.275Z,101617.70
2019-04-25T21:50:10.825Z,101626.47
2019-04-25T21:52:40.132Z,101624.33
2019-04-25T21:55:10.092Z,101626.64
2019-04-25T21:57:40.284Z,101623.14
2019-04-25T22:00:13.465Z,101621.77
2019-04-25T22:02:44.420Z,101624.92
2019-04-25T22:05:14.524Z,101622.00
2019-04-25T22:07:44.636Z,101625.66
2019-04-25T22:10:14.876Z,101627.06
2019-04-25T22:12:44.769Z,101626.37
2019-04-25T22:15:16.293Z,101622.55
2019-04-25T22:17:46.134Z,101629.55
2019-04-25T22:20:16.122Z,101622.09
2019-04-25T22:22:46.261Z,101620.89
2019-04-25T22:25:16.000Z,101623.33
2019-04-25T22:27:46.429Z,101618.78
2019-04-25T22:30:18.030Z,101613.77
2019-04-25T22:33:03.637Z,101610.95
2019-04-25T22:35:53.342Z,101615.79
2019-04-25T22:38:23.446Z,101607.72
2019-04-25T22:40:54.625Z,101619.21
2019-04-25T22:43:24.702Z,101611.54
2019-04-25T22:45:54.956Z,101609.27
2019-04-25T22:48:26.544Z,101597.17
2019-04-25T22:50:57.530Z,101612.66
2019-04-25T22:53:26.805Z,101609.09
2019-04-25T22:55:57.121Z,101611.98
2019-04-25T22:58:27.013Z,101611.67
2019-04-25T23:00:57.038Z,101601.12
2019-04-25T23:03:28.527Z,101612.03
2019-04-25T23:05:58.424Z,101611.23
2019-04-25T23:08:28.632Z,101611.69
2019-04-25T23:10:58.532Z,101607.86
2019-04-25T23:13:28.463Z,101616.57
2019-04-25T23:15:58.478Z,101614.09
2019-04-25T23:18:28.620Z,101607.91
2019-04-25T23:20:58.405Z,101610.56
2019-04-25T23:23:28.482Z,101607.50
2019-04-25T23:26:03.561Z,101607.86
2019-04-25T23:28:40.304Z,101606.52
2019-04-25T23:31:12.531Z,101601.41
2019-04-25T23:33:42.489Z,101606.20
2019-04-25T23:36:13.224Z,101605.66
2019-04-25T23:38:43.068Z,101596.44
2019-04-25T23:41:13.580Z,101598.67
2019-04-25T23:43:43.477Z,101604.12
2019-04-25T23:46:14.189Z,101602.00
2019-04-25T23:48:44.341Z,101599.67
2019-04-25T23:51:14.361Z,101601.16
2019-04-25T23:53:45.062Z,101602.56
2019-04-25T23:56:15.281Z,101597.08
2019-04-25T23:58:45.289Z,101597.92
